createdAt,value
2018-08-28T00:02:24.497Z,61.95
2018-08-28T00:04:53.279Z,61.67
2018-08-28T00:07:22.414Z,62.50
2018-08-28T00:09:52.151Z,61.31
2018-08-28T00:12:20.740Z,62.10
2018-08-28T00:14:49.702Z,62.36
2018-08-28T00:17:18.506Z,62.22
2018-08-28T00:19:47.650Z,62.66
2018-08-28T00:22:17.913Z,62.20
2018-08-28T00:24:46.619Z,62.19
2018-08-28T00:27:15.560Z,62.39
2018-08-28T00:29:44.213Z,62.52
2018-08-28T00:32:13.773Z,62.18
2018-08-28T00:34:42.489Z,62.95
2018-08-28T00:37:12.072Z,62.66
2018-08-28T00:39:41.940Z,63.44
2018-08-28T00:42:11.001Z,63.20
2018-08-28T00:44:39.604Z,62.84
2018-08-28T00:47:08.248Z,63.45
2018-08-28T00:49:37.694Z,63.56
2018-08-28T00:52:07.004Z,63.08
2018-08-28T00:54:35.916Z,63.44
2018-08-28T00:57:04.687Z,63.76
2018-08-28T00:59:33.613Z,63.68
2018-08-28T01:02:02.724Z,63.45
2018-08-28T01:04:31.443Z,63.71
2018-08-28T01:07:03.290Z,63.60
2018-08-28T01:09:32.032Z,63.57
2018-08-28T01:12:01.749Z,63.57
2018-08-28T01:14:31.077Z,63.63
2018-08-28T01:16:59.943Z,63.44
2018-08-28T01:19:28.975Z,63.63
2018-08-28T01:21:57.783Z,64.29
2018-08-28T01:24:27.532Z,63.54
2018-08-28T01:26:56.194Z,63.70
2018-08-28T01:29:25.541Z,64.35
2018-08-28T01:31:54.747Z,63.64
2018-08-28T01:34:23.872Z,63.75
2018-08-28T01:36:52.401Z,63.98
2018-08-28T01:39:21.017Z,64.11
2018-08-28T01:41:50.217Z,64.00
2018-08-28T01:44:19.241Z,63.47
2018-08-28T01:46:47.873Z,64.09
2018-08-28T01:49:16.433Z,64.50
2018-08-28T01:51:46.117Z,64.25
2018-08-28T01:54:15.765Z,64.53
2018-08-28T01:56:44.972Z,64.71
2018-08-28T01:59:14.493Z,64.73
2018-08-28T02:01:43.017Z,64.26
2018-08-28T02:04:12.134Z,64.28
2018-08-28T02:06:40.683Z,64.26
2018-08-28T02:09:09.416Z,64.44
2018-08-28T02:11:38.334Z,63.64
2018-08-28T02:14:06.921Z,64.02
2018-08-28T02:16:35.855Z,63.94
2018-08-28T02:19:05.389Z,64.29
2018-08-28T02:21:34.491Z,63.78
2018-08-28T02:24:05.294Z,63.38
2018-08-28T02:26:33.817Z,63.68
2018-08-28T02:29:04.052Z,64.32
2018-08-28T02:31:32.943Z,63.94
2018-08-28T02:34:02.013Z,64.17
2018-08-28T02:36:30.990Z,63.99
2018-08-28T02:38:59.674Z,64.59
2018-08-28T02:41:28.207Z,63.79
2018-08-28T02:43:56.639Z,64.40
2018-08-28T02:46:25.253Z,64.24
2018-08-28T02:48:54.723Z,64.77
2018-08-28T02:51:24.144Z,64.79
2018-08-28T02:53:55.564Z,64.47
2018-08-28T02:56:24.197Z,64.11
2018-08-28T02:58:53.157Z,64.93
2018-08-28T03:01:22.425Z,64.95
2018-08-28T03:03:52.195Z,64.96
2018-08-28T03:06:20.834Z,64.88
2018-08-28T03:08:49.363Z,65.00
2018-08-28T03:11:18.677Z,64.76
2018-08-28T03:13:47.570Z,64.51
2018-08-28T03:16:16.237Z,65.05
2018-08-28T03:18:45.835Z,65.15
2018-08-28T03:21:14.805Z,65.31
2018-08-28T03:23:43.408Z,65.46
2018-08-28T03:26:11.973Z,65.15
2018-08-28T03:28:41.069Z,64.84
2018-08-28T03:31:10.419Z,64.81
2018-08-28T03:33:39.079Z,64.98
2018-08-28T03:36:07.585Z,65.29
2018-08-28T03:38:36.179Z,65.21
2018-08-28T03:41:04.843Z,64.74
2018-08-28T03:43:33.558Z,64.40
2018-08-28T03:46:03.699Z,64.87
2018-08-28T03:48:34.263Z,64.98
2018-08-28T03:51:04.960Z,64.91
2018-08-28T03:53:33.952Z,64.77
2018-08-28T03:56:02.757Z,64.52
2018-08-28T03:58:31.272Z,64.92
2018-08-28T04:00:59.923Z,64.62
2018-08-28T04:03:28.507Z,64.97
2018-08-28T04:05:58.639Z,64.94
2018-08-28T04:08:27.352Z,64.98
2018-08-28T04:10:57.269Z,65.04
2018-08-28T04:13:27.728Z,65.00
2018-08-28T04:15:57.268Z,64.97
2018-08-28T04:18:25.741Z,65.22
2018-08-28T04:20:55.308Z,65.25
2018-08-28T04:23:23.832Z,65.08
2018-08-28T04:25:52.701Z,65.56
2018-08-28T04:28:22.714Z,65.38
2018-08-28T04:30:51.316Z,65.48
2018-08-28T04:33:20.344Z,65.70
2018-08-28T04:35:49.187Z,65.38
2018-08-28T04:38:17.782Z,65.78
2018-08-28T04:40:46.273Z,65.82
2018-08-28T04:43:16.595Z,65.56
2018-08-28T04:45:45.826Z,65.81
2018-08-28T04:48:14.617Z,66.54
2018-08-28T04:50:45.437Z,66.05
2018-08-28T04:53:14.567Z,66.14
2018-08-28T04:55:43.197Z,65.63
2018-08-28T04:58:13.004Z,65.59
2018-08-28T05:00:43.913Z,65.35
2018-08-28T05:03:13.509Z,66.19
2018-08-28T05:05:43.540Z,65.74
2018-08-28T05:08:13.011Z,65.53
2018-08-28T05:10:42.128Z,65.48
2018-08-28T05:13:10.761Z,65.47
2018-08-28T05:15:39.892Z,65.36
2018-08-28T05:18:09.264Z,65.93
2018-08-28T05:20:38.962Z,65.82
2018-08-28T05:23:08.612Z,65.09
2018-08-28T05:25:38.844Z,65.23
2018-08-28T05:28:08.818Z,65.42
2018-08-28T05:30:38.292Z,65.47
2018-08-28T05:33:11.206Z,65.24
2018-08-28T05:35:41.041Z,65.85
2018-08-28T05:38:10.516Z,65.34
2018-08-28T05:40:40.583Z,64.99
2018-08-28T05:43:15.809Z,64.32
2018-08-28T05:45:44.481Z,64.71
2018-08-28T05:48:15.740Z,64.42
2018-08-28T05:50:44.297Z,64.56
2018-08-28T05:53:14.103Z,64.73
2018-08-28T05:55:42.803Z,64.67
2018-08-28T05:58:12.177Z,64.06
2018-08-28T06:00:41.718Z,64.45
2018-08-28T06:03:11.019Z,64.41
2018-08-28T06:05:39.734Z,64.69
2018-08-28T06:08:08.516Z,64.87
2018-08-28T06:10:37.088Z,64.53
2018-08-28T06:13:05.947Z,64.42
2018-08-28T06:15:34.626Z,64.74
2018-08-28T06:18:03.701Z,63.67
2018-08-28T06:20:32.797Z,63.41
2018-08-28T06:23:02.022Z,63.71
2018-08-28T06:25:30.950Z,64.16
2018-08-28T06:28:00.051Z,64.22
2018-08-28T06:30:29.159Z,64.43
2018-08-28T06:32:58.496Z,63.98
2018-08-28T06:35:27.797Z,64.49
2018-08-28T06:37:56.529Z,64.02
2018-08-28T06:40:25.264Z,64.62
2018-08-28T06:42:53.907Z,64.07
2018-08-28T06:45:22.804Z,63.98
2018-08-28T06:47:51.809Z,63.79
2018-08-28T06:50:22.375Z,64.39
2018-08-28T06:52:51.425Z,63.65
2018-08-28T06:55:20.501Z,63.40
2018-08-28T06:57:54.176Z,63.19
2018-08-28T07:00:23.739Z,63.65
2018-08-28T07:02:52.963Z,62.68
2018-08-28T07:05:22.383Z,62.65
2018-08-28T07:07:51.070Z,62.97
2018-08-28T07:10:19.634Z,62.17
2018-08-28T07:12:48.882Z,62.43
2018-08-28T07:15:17.528Z,62.46
2018-08-28T07:17:46.866Z,62.84
2018-08-28T07:20:15.638Z,62.58
2018-08-28T07:22:44.990Z,62.95
2018-08-28T07:25:13.550Z,62.66
2018-08-28T07:27:42.220Z,62.47
2018-08-28T07:30:10.724Z,63.05
2018-08-28T07:32:39.701Z,62.55
2018-08-28T07:35:08.437Z,62.89
2018-08-28T07:37:37.989Z,62.09
2018-08-28T07:40:08.533Z,62.05
2018-08-28T07:42:37.140Z,62.11
2018-08-28T07:45:06.628Z,61.88
2018-08-28T07:47:36.415Z,61.53
2018-08-28T07:50:06.016Z,61.65
2018-08-28T07:52:34.562Z,61.93
2018-08-28T07:55:04.817Z,61.45
2018-08-28T07:57:33.482Z,61.41
2018-08-28T08:00:02.885Z,61.49
2018-08-28T08:02:31.573Z,62.90
2018-08-28T08:05:00.687Z,60.31
2018-08-28T08:07:29.387Z,61.09
2018-08-28T08:09:57.969Z,60.47
2018-08-28T08:12:27.414Z,60.40
2018-08-28T08:14:56.736Z,60.74
2018-08-28T08:17:25.428Z,60.40
2018-08-28T08:19:54.143Z,59.93
2018-08-28T08:22:23.476Z,59.59
2018-08-28T08:24:52.442Z,60.26
2018-08-28T08:27:23.418Z,59.38
2018-08-28T08:29:51.884Z,58.72
2018-08-28T08:32:21.471Z,58.62
2018-08-28T08:34:50.259Z,58.44
2018-08-28T08:37:20.277Z,58.78
2018-08-28T08:39:51.286Z,58.66
2018-08-28T08:42:21.004Z,58.94
2018-08-28T08:44:49.524Z,58.11
2018-08-28T08:47:18.825Z,58.34
2018-08-28T08:49:48.140Z,57.93
2018-08-28T08:52:18.313Z,57.36
2018-08-28T08:54:48.031Z,57.43
2018-08-28T08:57:17.480Z,57.65
2018-08-28T08:59:49.299Z,57.83
2018-08-28T09:02:19.733Z,57.56
2018-08-28T09:04:50.158Z,57.49
2018-08-28T09:07:18.615Z,57.13
2018-08-28T09:09:47.103Z,57.40
2018-08-28T09:12:17.020Z,56.90
2018-08-28T09:14:45.530Z,56.45
2018-08-28T09:17:14.978Z,56.95
2018-08-28T09:19:43.491Z,57.29
2018-08-28T09:22:12.380Z,57.39
2018-08-28T09:24:41.748Z,56.90
2018-08-28T09:27:10.339Z,56.31
2018-08-28T09:29:39.777Z,56.20
2018-08-28T09:32:09.356Z,57.05
2018-08-28T09:34:37.988Z,56.24
2018-08-28T09:37:07.288Z,56.73
2018-08-28T09:39:36.048Z,56.31
2018-08-28T09:42:05.420Z,56.22
2018-08-28T09:44:33.970Z,56.94
2018-08-28T09:47:05.257Z,56.21
2018-08-28T09:49:34.333Z,56.94
2018-08-28T09:52:04.929Z,56.18
2018-08-28T09:54:35.533Z,55.72
2018-08-28T09:57:05.722Z,55.58
2018-08-28T09:59:36.071Z,54.89
2018-08-28T10:02:05.926Z,54.03
2018-08-28T10:04:34.486Z,54.32
2018-08-28T10:07:04.914Z,54.35
2018-08-28T10:09:35.421Z,53.83
2018-08-28T10:12:04.770Z,54.22
2018-08-28T10:14:33.531Z,53.48
2018-08-28T10:17:03.480Z,54.40
2018-08-28T10:19:32.277Z,53.85
2018-08-28T10:22:02.266Z,53.52
2018-08-28T10:24:31.744Z,52.62
2018-08-28T10:27:00.426Z,51.70
2018-08-28T10:29:29.040Z,51.28
2018-08-28T10:31:58.607Z,50.68
2018-08-28T10:34:28.450Z,51.09
2018-08-28T10:36:58.609Z,51.06
2018-08-28T10:39:27.551Z,50.86
2018-08-28T10:41:57.051Z,50.76
2018-08-28T10:44:28.121Z,51.13
2018-08-28T10:46:56.723Z,50.13
2018-08-28T10:49:27.037Z,49.35
2018-08-28T10:51:55.924Z,49.30
2018-08-28T10:54:26.146Z,49.48
2018-08-28T10:56:56.678Z,49.14
2018-08-28T10:59:28.448Z,49.21
2018-08-28T11:01:57.021Z,50.36
2018-08-28T11:04:26.141Z,48.63
2018-08-28T11:06:55.435Z,48.12
2018-08-28T11:09:25.228Z,47.84
2018-08-28T11:11:57.627Z,48.27
2018-08-28T11:14:29.022Z,48.78
2018-08-28T11:17:01.173Z,48.64
2018-08-28T11:19:31.463Z,49.07
2018-08-28T11:22:00.950Z,48.73
2018-08-28T11:24:29.760Z,49.07
2018-08-28T11:26:58.409Z,50.07
2018-08-28T11:29:27.105Z,50.11
2018-08-28T11:31:56.661Z,49.43
2018-08-28T11:34:26.485Z,49.26
2018-08-28T11:36:56.656Z,47.84
2018-08-28T11:39:25.313Z,46.92
2018-08-28T11:41:54.855Z,47.23
2018-08-28T11:44:25.342Z,46.40
2018-08-28T11:46:54.634Z,46.75
2018-08-28T11:49:23.210Z,46.21
2018-08-28T11:51:52.047Z,47.09
2018-08-28T11:54:20.828Z,47.42
2018-08-28T11:56:49.994Z,49.48
2018-08-28T11:59:19.348Z,50.45
2018-08-28T12:01:49.198Z,49.91
2018-08-28T12:04:19.226Z,50.08
2018-08-28T12:06:49.306Z,50.33
2018-08-28T12:09:17.917Z,50.98
2018-08-28T12:11:46.946Z,50.62
2018-08-28T12:14:16.353Z,51.04
2018-08-28T12:16:45.174Z,50.70
2018-08-28T12:19:13.718Z,49.81
2018-08-28T12:21:45.333Z,49.15
2018-08-28T12:24:17.668Z,48.85
2018-08-28T12:26:52.034Z,49.52
2018-08-28T12:29:20.638Z,48.98
2018-08-28T12:31:50.456Z,48.82
2018-08-28T12:34:19.047Z,48.63
2018-08-28T12:36:48.495Z,47.78
2018-08-28T12:39:17.879Z,48.43
2018-08-28T12:41:47.556Z,48.56
2018-08-28T12:44:16.267Z,47.92
2018-08-28T12:46:44.828Z,49.38
2018-08-28T12:49:13.524Z,47.51
2018-08-28T12:51:42.152Z,46.72
2018-08-28T12:54:11.106Z,47.37
2018-08-28T12:56:40.320Z,46.96
2018-08-28T12:59:09.952Z,46.55
2018-08-28T13:01:39.591Z,46.48
2018-08-28T13:04:08.373Z,45.81
2018-08-28T13:06:39.320Z,45.73
2018-08-28T13:09:09.029Z,45.57
2018-08-28T13:11:38.225Z,45.64
2018-08-28T13:14:07.987Z,44.72
2018-08-28T13:16:37.669Z,44.49
2018-08-28T13:19:07.865Z,45.20
2018-08-28T13:21:36.729Z,44.27
2018-08-28T13:24:05.660Z,44.57
2018-08-28T13:26:35.312Z,45.13
2018-08-28T13:29:05.403Z,44.36
2018-08-28T13:31:34.356Z,43.95
2018-08-28T13:34:03.581Z,43.61
2018-08-28T13:36:33.038Z,44.08
2018-08-28T13:39:02.906Z,44.25
2018-08-28T13:41:32.535Z,44.21
2018-08-28T13:44:01.946Z,43.29
2018-08-28T13:46:31.759Z,43.45
2018-08-28T13:49:01.973Z,43.35
2018-08-28T13:51:32.173Z,43.50
2018-08-28T13:54:02.687Z,41.87
2018-08-28T13:56:33.276Z,41.99
2018-08-28T13:59:04.173Z,42.86
2018-08-28T14:01:34.327Z,40.91
2018-08-28T14:04:04.190Z,41.74
2018-08-28T14:06:33.708Z,41.42
2018-08-28T14:09:02.949Z,40.66
2018-08-28T14:11:31.705Z,40.50
2018-08-28T14:14:01.017Z,40.05
2018-08-28T14:16:30.541Z,40.92
2018-08-28T14:19:00.033Z,40.04
2018-08-28T14:21:29.663Z,40.29
2018-08-28T14:23:59.777Z,39.55
2018-08-28T14:26:28.607Z,39.69
2018-08-28T14:28:57.251Z,40.22
2018-08-28T14:31:26.459Z,40.06
2018-08-28T14:33:55.695Z,40.27
2018-08-28T14:36:26.315Z,41.16
2018-08-28T14:38:56.588Z,40.86
2018-08-28T14:41:27.440Z,41.03
2018-08-28T14:43:56.413Z,40.63
2018-08-28T14:46:28.297Z,40.07
2018-08-28T14:48:57.765Z,40.02
2018-08-28T14:51:27.243Z,40.60
2018-08-28T14:53:55.869Z,41.57
2018-08-28T14:56:26.340Z,41.94
2018-08-28T14:58:55.036Z,41.46
2018-08-28T15:01:25.914Z,41.11
2018-08-28T15:03:55.780Z,41.63
2018-08-28T15:06:25.522Z,40.88
2018-08-28T15:08:55.212Z,40.07
2018-08-28T15:11:24.109Z,39.55
2018-08-28T15:13:52.978Z,40.18
2018-08-28T15:16:24.614Z,39.41
2018-08-28T15:18:54.456Z,39.81
2018-08-28T15:21:25.516Z,40.21
2018-08-28T15:23:55.062Z,39.50
2018-08-28T15:26:24.153Z,41.36
2018-08-28T15:28:54.525Z,40.41
2018-08-28T15:31:24.974Z,38.99
2018-08-28T15:33:55.564Z,39.38
2018-08-28T15:36:25.904Z,39.51
2018-08-28T15:38:55.939Z,39.51
2018-08-28T15:41:24.615Z,39.71
2018-08-28T15:43:54.993Z,40.29
2018-08-28T15:46:26.267Z,40.53
2018-08-28T15:48:55.269Z,41.43
2018-08-28T15:51:24.274Z,41.44
2018-08-28T15:53:55.530Z,40.22
2018-08-28T15:56:26.952Z,40.21
2018-08-28T15:58:59.357Z,39.37
2018-08-28T16:01:29.770Z,39.27
2018-08-28T16:03:59.694Z,39.34
2018-08-28T16:06:29.321Z,39.24
2018-08-28T16:08:58.559Z,39.99
2018-08-28T16:11:28.889Z,39.55
2018-08-28T16:14:00.115Z,39.79
2018-08-28T16:16:32.658Z,40.64
2018-08-28T16:19:02.716Z,40.78
2018-08-28T16:21:40.078Z,41.38
2018-08-28T16:24:09.160Z,41.11
2018-08-28T16:26:38.795Z,42.48
2018-08-28T16:29:07.925Z,41.19
2018-08-28T16:31:37.065Z,40.83
2018-08-28T16:34:09.070Z,41.21
2018-08-28T16:36:37.766Z,41.98
2018-08-28T16:39:09.317Z,41.70
2018-08-28T16:41:38.388Z,42.71
2018-08-28T16:44:08.023Z,42.01
2018-08-28T16:46:38.243Z,42.96
2018-08-28T16:49:08.706Z,41.29
2018-08-28T16:51:38.772Z,44.45
2018-08-28T16:54:09.885Z,46.93
2018-08-28T16:56:38.462Z,45.83
2018-08-28T16:59:08.174Z,48.95
2018-08-28T17:01:37.109Z,50.89
2018-08-28T17:04:09.024Z,49.76
2018-08-28T17:06:39.961Z,49.87
2018-08-28T17:09:10.768Z,48.44
2018-08-28T17:11:41.386Z,46.78
2018-08-28T17:14:10.456Z,43.26
2018-08-28T17:16:40.981Z,44.28
2018-08-28T17:19:09.711Z,42.20
2018-08-28T17:21:39.980Z,43.31
2018-08-28T17:24:11.651Z,43.88
2018-08-28T17:26:42.476Z,45.19
2018-08-28T17:29:42.434Z,45.43
2018-08-28T17:32:13.329Z,46.25
2018-08-28T17:34:42.159Z,46.04
2018-08-28T17:37:13.327Z,46.11
2018-08-28T17:39:41.960Z,46.18
2018-08-28T17:44:38.741Z,47.19
2018-08-28T17:47:07.438Z,46.03
2018-08-28T17:49:36.043Z,46.67
2018-08-28T17:52:05.078Z,45.50
2018-08-28T17:54:35.421Z,46.42
2018-08-28T17:57:04.109Z,46.89
2018-08-28T17:59:32.721Z,47.64
2018-08-28T18:02:02.457Z,47.83
2018-08-28T18:04:31.871Z,48.01
2018-08-28T18:07:00.966Z,47.54
2018-08-28T18:09:29.641Z,47.20
2018-08-28T18:11:58.405Z,47.87
2018-08-28T18:14:27.426Z,48.72
2018-08-28T18:16:56.714Z,49.09
2018-08-28T18:19:26.001Z,49.73
2018-08-28T18:21:54.812Z,49.85
2018-08-28T18:24:24.318Z,49.80
2018-08-28T18:26:52.994Z,49.98
2018-08-28T18:29:22.588Z,49.72
2018-08-28T18:31:55.267Z,50.19
2018-08-28T18:34:24.230Z,50.62
2018-08-28T18:36:53.002Z,51.14
2018-08-28T18:39:23.329Z,51.03
2018-08-28T18:41:52.639Z,50.86
2018-08-28T18:44:21.409Z,52.00
2018-08-28T18:47:03.045Z,52.20
2018-08-28T18:49:32.938Z,51.83
2018-08-28T18:52:02.077Z,52.69
2018-08-28T18:54:35.782Z,51.67
2018-08-28T18:57:04.352Z,51.69
2018-08-28T18:59:33.080Z,51.38
2018-08-28T19:04:10.999Z,53.02
2018-08-28T19:06:42.616Z,52.06
2018-08-28T19:09:11.472Z,52.15
2018-08-28T19:11:42.654Z,52.87
2018-08-28T19:14:12.243Z,53.24
2018-08-28T19:16:42.400Z,53.31
2018-08-28T19:19:12.468Z,53.58
2018-08-28T19:24:25.758Z,53.76
2018-08-28T19:26:54.442Z,54.75
2018-08-28T19:29:23.088Z,53.36
2018-08-28T19:31:52.780Z,54.33
2018-08-28T19:34:21.406Z,53.99
2018-08-28T19:36:51.516Z,54.84
2018-08-28T19:39:22.555Z,54.70
2018-08-28T19:41:51.380Z,54.50
2018-08-28T19:44:20.325Z,54.89
2018-08-28T19:46:49.059Z,55.29
2018-08-28T19:49:18.423Z,55.64
2018-08-28T19:51:48.138Z,55.22
2018-08-28T19:54:17.611Z,55.41
2018-08-28T19:56:46.781Z,54.68
2018-08-28T19:59:15.485Z,54.92
2018-08-28T20:01:44.320Z,55.83
2018-08-28T20:04:13.053Z,56.28
2018-08-28T20:06:41.555Z,55.40
2018-08-28T20:09:11.236Z,55.80
2018-08-28T20:11:41.958Z,55.54
2018-08-28T20:14:10.554Z,55.90
2018-08-28T20:16:39.251Z,55.79
2018-08-28T20:19:08.447Z,55.87
2018-08-28T20:21:37.175Z,55.80
2018-08-28T20:24:06.740Z,55.81
2018-08-28T20:26:39.413Z,55.21
2018-08-28T20:29:08.312Z,55.93
2018-08-28T20:31:37.459Z,55.78
2018-08-28T20:34:07.299Z,56.04
2018-08-28T20:36:36.821Z,56.21
2018-08-28T20:39:06.386Z,56.76
2018-08-28T20:41:35.534Z,56.25
2018-08-28T20:44:05.148Z,56.73
2018-08-28T20:46:33.801Z,56.39
2018-08-28T20:49:04.837Z,56.61
2018-08-28T20:51:34.159Z,57.08
2018-08-28T20:54:04.062Z,57.65
2018-08-28T20:56:38.637Z,57.50
2018-08-28T20:59:08.269Z,57.22
2018-08-28T21:01:37.692Z,57.65
2018-08-28T21:04:16.764Z,57.26
2018-08-28T21:06:45.398Z,58.08
2018-08-28T21:09:14.435Z,57.73
2018-08-28T21:11:44.167Z,57.65
2018-08-28T21:14:13.268Z,58.58
2018-08-28T21:16:42.834Z,58.13
2018-08-28T21:22:49.253Z,59.32
2018-08-28T21:25:18.734Z,58.92
2018-08-28T21:27:48.656Z,59.03
2018-08-28T21:30:17.414Z,59.20
2018-08-28T21:32:47.598Z,59.75
2018-08-28T21:35:16.286Z,59.09
2018-08-28T21:37:45.503Z,59.42
2018-08-28T21:40:14.727Z,60.07
2018-08-28T21:42:43.470Z,59.67
2018-08-28T21:45:12.509Z,59.75
2018-08-28T21:47:41.891Z,59.78
2018-08-28T21:50:10.603Z,59.98
2018-08-28T21:52:42.360Z,60.50
2018-08-28T21:55:12.506Z,60.29
2018-08-28T21:57:41.069Z,60.73
2018-08-28T22:00:10.071Z,60.65
2018-08-28T22:02:38.924Z,60.48
2018-08-28T22:05:08.483Z,60.79
2018-08-28T22:07:41.017Z,61.18
2018-08-28T22:10:10.109Z,60.73
2018-08-28T22:12:38.899Z,60.94
2018-08-28T22:15:14.343Z,61.60
2018-08-28T22:17:43.871Z,61.57
2018-08-28T22:20:12.485Z,61.25
2018-08-28T22:22:42.253Z,61.20
2018-08-28T22:25:10.904Z,60.95
2018-08-28T22:27:40.117Z,61.70
2018-08-28T22:30:09.949Z,61.67
2018-08-28T22:32:39.188Z,61.81
2018-08-28T22:35:08.130Z,61.39
2018-08-28T22:40:56.193Z,61.68
2018-08-28T22:43:25.166Z,61.48
2018-08-28T22:45:53.763Z,62.22
2018-08-28T22:48:23.204Z,61.80
2018-08-28T22:50:51.862Z,62.01
2018-08-28T22:53:20.464Z,62.14
2018-08-28T22:55:50.101Z,61.81
2018-08-28T22:58:18.655Z,62.07
2018-08-28T23:00:48.520Z,62.31
2018-08-28T23:03:17.432Z,61.68
2018-08-28T23:05:47.093Z,62.19
2018-08-28T23:08:15.792Z,62.32
2018-08-28T23:10:44.511Z,62.00
2018-08-28T23:13:13.216Z,61.94
2018-08-28T23:15:41.913Z,62.31
2018-08-28T23:18:11.449Z,62.18
2018-08-28T23:20:40.267Z,62.20
2018-08-28T23:23:10.316Z,62.39
2018-08-28T23:25:39.856Z,61.66
2018-08-28T23:28:09.737Z,62.06
2018-08-28T23:30:39.072Z,62.09
2018-08-28T23:33:08.559Z,61.53
2018-08-28T23:35:37.103Z,62.67
2018-08-28T23:38:06.232Z,62.51
2018-08-28T23:40:34.775Z,62.60
2018-08-28T23:43:03.513Z,61.97
2018-08-28T23:45:32.149Z,62.27
2018-08-28T23:48:02.149Z,62.10
2018-08-28T23:50:30.876Z,62.65
2018-08-28T23:52:59.440Z,62.91
2018-08-28T23:55:28.606Z,62.75
2018-08-28T23:57:57.348Z,62.64
